sensor_id;sensor_type;location;lat;lon;timestamp;temperature;humidity
34099;DHT22;20374;49.474;10.944;2023-06-14T00:01:52;16.30;69.80
34099;DHT22;20374;49.474;10.944;2023-06-14T00:04:18;16.30;69.00
34099;DHT22;20374;49.474;10.944;2023-06-14T00:06:46;16.30;70.30
34099;DHT22;20374;49.474;10.944;2023-06-14T00:09:12;16.20;70.20
34099;DHT22;20374;49.474;10.944;2023-06-14T00:11:42;16.20;71.00
34099;DHT22;20374;49.474;10.944;2023-06-14T00:14:08;16.10;70.50
34099;DHT22;20374;49.474;10.944;2023-06-14T00:16:35;16.10;71.20
34099;DHT22;20374;49.474;10.944;2023-06-14T00:19:01;16.10;71.00
34099;DHT22;20374;49.474;10.944;2023-06-14T00:21:32;16.00;70.80
34099;DHT22;20374;49.474;10.944;2023-06-14T00:23:58;15.90;72.00
34099;DHT22;20374;49.474;10.944;2023-06-14T00:26:26;15.90;72.70
34099;DHT22;20374;49.474;10.944;2023-06-14T00:28:53;15.80;72.60
34099;DHT22;20374;49.474;10.944;2023-06-14T00:31:20;15.80;73.30
34099;DHT22;20374;49.474;10.944;2023-06-14T00:33:46;15.70;74.00
34099;DHT22;20374;49.474;10.944;2023-06-14T00:36:12;15.70;74.70
34099;DHT22;20374;49.474;10.944;2023-06-14T00:38:38;15.60;74.50
34099;DHT22;20374;49.474;10.944;2023-06-14T00:41:04;15.60;75.40
34099;DHT22;20374;49.474;10.944;2023-06-14T00:43:30;15.60;76.90
34099;DHT22;20374;49.474;10.944;2023-06-14T00:45:56;15.50;76.70
34099;DHT22;20374;49.474;10.944;2023-06-14T00:48:23;15.50;77.20
34099;DHT22;20374;49.474;10.944;2023-06-14T00:50:50;15.50;78.30
34099;DHT22;20374;49.474;10.944;2023-06-14T00:53:19;15.40;79.20
34099;DHT22;20374;49.474;10.944;2023-06-14T00:55:49;15.30;79.60
34099;DHT22;20374;49.474;10.944;2023-06-14T00:58:16;15.20;80.80
34099;DHT22;20374;49.474;10.944;2023-06-14T01:00:42;15.20;82.10
34099;DHT22;20374;49.474;10.944;2023-06-14T01:03:08;15.10;81.50
34099;DHT22;20374;49.474;10.944;2023-06-14T01:05:39;14.90;82.00
34099;DHT22;20374;49.474;10.944;2023-06-14T01:08:25;14.70;81.90
34099;DHT22;20374;49.474;10.944;2023-06-14T01:13:36;14.80;83.90
34099;DHT22;20374;49.474;10.944;2023-06-14T01:16:05;14.70;86.10
34099;DHT22;20374;49.474;10.944;2023-06-14T01:18:32;14.70;86.70
34099;DHT22;20374;49.474;10.944;2023-06-14T01:21:01;14.70;86.90
34099;DHT22;20374;49.474;10.944;2023-06-14T01:23:31;14.60;86.80
34099;DHT22;20374;49.474;10.944;2023-06-14T01:26:01;14.60;86.40
34099;DHT22;20374;49.474;10.944;2023-06-14T01:28:31;14.50;86.50
34099;DHT22;20374;49.474;10.944;2023-06-14T01:31:01;14.50;88.10
34099;DHT22;20374;49.474;10.944;2023-06-14T01:33:30;14.30;88.30
34099;DHT22;20374;49.474;10.944;2023-06-14T01:35:58;14.30;89.30
34099;DHT22;20374;49.474;10.944;2023-06-14T01:38:26;14.30;90.30
34099;DHT22;20374;49.474;10.944;2023-06-14T01:40:55;14.20;90.80
34099;DHT22;20374;49.474;10.944;2023-06-14T01:43:22;14.20;90.90
34099;DHT22;20374;49.474;10.944;2023-06-14T01:45:48;14.20;91.30
34099;DHT22;20374;49.474;10.944;2023-06-14T01:48:18;14.10;91.30
34099;DHT22;20374;49.474;10.944;2023-06-14T01:50:45;14.10;91.60
34099;DHT22;20374;49.474;10.944;2023-06-14T01:53:11;14.00;92.10
34099;DHT22;20374;49.474;10.944;2023-06-14T01:55:37;14.00;92.00
34099;DHT22;20374;49.474;10.944;2023-06-14T01:58:06;14.00;92.30
34099;DHT22;20374;49.474;10.944;2023-06-14T02:00:32;14.00;92.80
34099;DHT22;20374;49.474;10.944;2023-06-14T02:02:58;13.90;93.30
34099;DHT22;20374;49.474;10.944;2023-06-14T02:05:25;14.00;93.10
34099;DHT22;20374;49.474;10.944;2023-06-14T02:07:52;14.00;93.40
34099;DHT22;20374;49.474;10.944;2023-06-14T02:10:19;13.90;93.20
34099;DHT22;20374;49.474;10.944;2023-06-14T02:12:46;13.80;93.20
34099;DHT22;20374;49.474;10.944;2023-06-14T02:15:12;13.80;94.20
34099;DHT22;20374;49.474;10.944;2023-06-14T02:17:48;13.70;94.90
34099;DHT22;20374;49.474;10.944;2023-06-14T02:20:16;13.60;94.30
34099;DHT22;20374;49.474;10.944;2023-06-14T02:22:42;13.70;94.70
34099;DHT22;20374;49.474;10.944;2023-06-14T02:25:08;13.60;95.10
34099;DHT22;20374;49.474;10.944;2023-06-14T02:27:35;13.60;95.90
34099;DHT22;20374;49.474;10.944;2023-06-14T02:30:03;13.50;96.30
34099;DHT22;20374;49.474;10.944;2023-06-14T02:32:32;13.50;96.80
34099;DHT22;20374;49.474;10.944;2023-06-14T02:34:59;13.50;96.80
34099;DHT22;20374;49.474;10.944;2023-06-14T02:37:25;13.40;96.80
34099;DHT22;20374;49.474;10.944;2023-06-14T02:39:52;13.40;97.00
34099;DHT22;20374;49.474;10.944;2023-06-14T02:42:18;13.40;96.80
34099;DHT22;20374;49.474;10.944;2023-06-14T02:44:44;13.40;97.20
34099;DHT22;20374;49.474;10.944;2023-06-14T02:47:12;13.40;96.60
34099;DHT22;20374;49.474;10.944;2023-06-14T02:49:38;13.40;97.20
34099;DHT22;20374;49.474;10.944;2023-06-14T02:52:04;13.30;97.20
34099;DHT22;20374;49.474;10.944;2023-06-14T02:54:30;13.30;97.40
34099;DHT22;20374;49.474;10.944;2023-06-14T02:56:58;13.20;97.90
34099;DHT22;20374;49.474;10.944;2023-06-14T02:59:23;13.10;98.20
34099;DHT22;20374;49.474;10.944;2023-06-14T03:01:52;13.10;97.90
34099;DHT22;20374;49.474;10.944;2023-06-14T03:04:19;13.10;98.60
34099;DHT22;20374;49.474;10.944;2023-06-14T03:06:45;13.10;98.80
34099;DHT22;20374;49.474;10.944;2023-06-14T03:09:18;13.10;99.10
34099;DHT22;20374;49.474;10.944;2023-06-14T03:11:45;13.10;99.10
34099;DHT22;20374;49.474;10.944;2023-06-14T03:14:12;13.10;98.80
34099;DHT22;20374;49.474;10.944;2023-06-14T03:16:41;13.10;98.90
34099;DHT22;20374;49.474;10.944;2023-06-14T03:19:09;13.10;99.90
34099;DHT22;20374;49.474;10.944;2023-06-14T03:21:37;13.10;99.90
34099;DHT22;20374;49.474;10.944;2023-06-14T03:24:04;13.00;99.90
34099;DHT22;20374;49.474;10.944;2023-06-14T03:26:31;12.90;99.90
34099;DHT22;20374;49.474;10.944;2023-06-14T03:29:00;12.90;99.90
34099;DHT22;20374;49.474;10.944;2023-06-14T03:31:25;12.80;99.90
34099;DHT22;20374;49.474;10.944;2023-06-14T03:33:52;12.80;99.90
34099;DHT22;20374;49.474;10.944;2023-06-14T03:36:19;12.80;99.90
34099;DHT22;20374;49.474;10.944;2023-06-14T03:38:45;12.70;99.90
34099;DHT22;20374;49.474;10.944;2023-06-14T03:41:13;12.80;99.90
34099;DHT22;20374;49.474;10.944;2023-06-14T03:43:39;12.90;99.90
34099;DHT22;20374;49.474;10.944;2023-06-14T03:46:05;12.90;99.90
34099;DHT22;20374;49.474;10.944;2023-06-14T03:48:33;12.80;99.90
34099;DHT22;20374;49.474;10.944;2023-06-14T03:50:59;12.80;99.90
34099;DHT22;20374;49.474;10.944;2023-06-14T03:53:26;12.80;99.90
34099;DHT22;20374;49.474;10.944;2023-06-14T03:55:54;12.70;99.90
34099;DHT22;20374;49.474;10.944;2023-06-14T03:58:23;12.80;99.90
34099;DHT22;20374;49.474;10.944;2023-06-14T04:00:49;12.80;99.90
34099;DHT22;20374;49.474;10.944;2023-06-14T04:03:15;12.90;99.90
34099;DHT22;20374;49.474;10.944;2023-06-14T04:05:42;13.00;99.90
34099;DHT22;20374;49.474;10.944;2023-06-14T04:08:09;13.10;99.90
34099;DHT22;20374;49.474;10.944;2023-06-14T04:10:40;13.10;99.90
34099;DHT22;20374;49.474;10.944;2023-06-14T04:13:07;13.20;99.90
34099;DHT22;20374;49.474;10.944;2023-06-14T04:15:33;13.30;99.90
34099;DHT22;20374;49.474;10.944;2023-06-14T04:18:00;13.30;99.90
34099;DHT22;20374;49.474;10.944;2023-06-14T04:20:26;13.40;99.90
34099;DHT22;20374;49.474;10.944;2023-06-14T04:22:52;13.50;99.90
34099;DHT22;20374;49.474;10.944;2023-06-14T04:25:19;13.60;99.90
34099;DHT22;20374;49.474;10.944;2023-06-14T04:27:47;13.70;99.90
34099;DHT22;20374;49.474;10.944;2023-06-14T04:30:13;14.00;99.90
34099;DHT22;20374;49.474;10.944;2023-06-14T04:32:45;14.60;99.90
34099;DHT22;20374;49.474;10.944;2023-06-14T04:35:12;14.90;99.20
34099;DHT22;20374;49.474;10.944;2023-06-14T04:37:42;14.90;99.40
34099;DHT22;20374;49.474;10.944;2023-06-14T04:40:10;14.80;99.30
34099;DHT22;20374;49.474;10.944;2023-06-14T04:42:37;14.60;97.60
34099;DHT22;20374;49.474;10.944;2023-06-14T04:45:10;14.50;98.70
34099;DHT22;20374;49.474;10.944;2023-06-14T04:47:38;14.40;99.90
34099;DHT22;20374;49.474;10.944;2023-06-14T04:50:05;14.30;99.60
34099;DHT22;20374;49.474;10.944;2023-06-14T04:52:32;14.10;99.30
34099;DHT22;20374;49.474;10.944;2023-06-14T04:54:59;14.00;99.80
34099;DHT22;20374;49.474;10.944;2023-06-14T04:57:26;14.00;99.90
34099;DHT22;20374;49.474;10.944;2023-06-14T04:59:55;14.00;99.90
34099;DHT22;20374;49.474;10.944;2023-06-14T05:02:24;14.10;99.90
34099;DHT22;20374;49.474;10.944;2023-06-14T05:04:52;14.20;99.90
34099;DHT22;20374;49.474;10.944;2023-06-14T05:07:19;14.30;99.50
34099;DHT22;20374;49.474;10.944;2023-06-14T05:09:48;14.50;99.00
34099;DHT22;20374;49.474;10.944;2023-06-14T05:12:14;15.00;97.80
34099;DHT22;20374;49.474;10.944;2023-06-14T05:14:44;15.80;95.80
34099;DHT22;20374;49.474;10.944;2023-06-14T05:17:10;16.60;94.20
34099;DHT22;20374;49.474;10.944;2023-06-14T05:19:36;17.40;90.50
34099;DHT22;20374;49.474;10.944;2023-06-14T05:22:02;17.90;88.10
34099;DHT22;20374;49.474;10.944;2023-06-14T05:24:28;18.10;86.50
34099;DHT22;20374;49.474;10.944;2023-06-14T05:26:56;18.00;87.90
34099;DHT22;20374;49.474;10.944;2023-06-14T05:29:22;17.70;86.50
34099;DHT22;20374;49.474;10.944;2023-06-14T05:31:48;17.50;87.10
34099;DHT22;20374;49.474;10.944;2023-06-14T05:34:14;17.60;87.90
34099;DHT22;20374;49.474;10.944;2023-06-14T05:36:42;17.80;87.40
34099;DHT22;20374;49.474;10.944;2023-06-14T05:39:08;18.40;86.00
34099;DHT22;20374;49.474;10.944;2023-06-14T05:41:34;19.20;82.80
34099;DHT22;20374;49.474;10.944;2023-06-14T05:44:00;19.70;79.10
34099;DHT22;20374;49.474;10.944;2023-06-14T05:46:26;20.00;78.60
34099;DHT22;20374;49.474;10.944;2023-06-14T05:48:53;20.00;77.80
34099;DHT22;20374;49.474;10.944;2023-06-14T05:51:19;19.60;77.40
34099;DHT22;20374;49.474;10.944;2023-06-14T05:53:46;19.30;79.70
34099;DHT22;20374;49.474;10.944;2023-06-14T05:56:12;18.90;82.70
34099;DHT22;20374;49.474;10.944;2023-06-14T05:58:38;18.60;83.50
34099;DHT22;20374;49.474;10.944;2023-06-14T06:01:04;18.50;83.60
34099;DHT22;20374;49.474;10.944;2023-06-14T06:03:30;18.20;84.60
34099;DHT22;20374;49.474;10.944;2023-06-14T06:05:56;18.00;85.40
34099;DHT22;20374;49.474;10.944;2023-06-14T06:08:22;18.00;85.90
34099;DHT22;20374;49.474;10.944;2023-06-14T06:10:48;17.80;86.20
34099;DHT22;20374;49.474;10.944;2023-06-14T06:13:14;18.00;86.30
34099;DHT22;20374;49.474;10.944;2023-06-14T06:15:40;18.20;86.10
34099;DHT22;20374;49.474;10.944;2023-06-14T06:18:06;18.20;87.20
34099;DHT22;20374;49.474;10.944;2023-06-14T06:20:32;18.30;86.50
34099;DHT22;20374;49.474;10.944;2023-06-14T06:22:58;18.40;86.30
34099;DHT22;20374;49.474;10.944;2023-06-14T06:25:25;18.40;84.80
34099;DHT22;20374;49.474;10.944;2023-06-14T06:27:53;18.40;85.80
34099;DHT22;20374;49.474;10.944;2023-06-14T06:30:20;18.50;86.00
34099;DHT22;20374;49.474;10.944;2023-06-14T06:32:46;18.50;84.40
34099;DHT22;20374;49.474;10.944;2023-06-14T06:35:13;18.50;87.10
34099;DHT22;20374;49.474;10.944;2023-06-14T06:37:41;18.40;85.20
34099;DHT22;20374;49.474;10.944;2023-06-14T06:40:07;18.20;86.10
34099;DHT22;20374;49.474;10.944;2023-06-14T06:42:34;18.10;85.80
34099;DHT22;20374;49.474;10.944;2023-06-14T06:45:04;18.10;85.50
34099;DHT22;20374;49.474;10.944;2023-06-14T06:47:29;18.10;86.80
34099;DHT22;20374;49.474;10.944;2023-06-14T06:49:55;18.10;86.40
34099;DHT22;20374;49.474;10.944;2023-06-14T06:52:21;18.10;86.20
34099;DHT22;20374;49.474;10.944;2023-06-14T06:54:47;18.00;86.30
34099;DHT22;20374;49.474;10.944;2023-06-14T06:57:14;18.00;86.60
34099;DHT22;20374;49.474;10.944;2023-06-14T06:59:40;18.10;86.70
34099;DHT22;20374;49.474;10.944;2023-06-14T07:02:06;18.40;84.00
34099;DHT22;20374;49.474;10.944;2023-06-14T07:04:32;18.60;83.90
34099;DHT22;20374;49.474;10.944;2023-06-14T07:06:58;18.90;82.00
34099;DHT22;20374;49.474;10.944;2023-06-14T07:09:27;19.10;80.30
34099;DHT22;20374;49.474;10.944;2023-06-14T07:11:52;19.40;80.40
34099;DHT22;20374;49.474;10.944;2023-06-14T07:14:18;19.40;79.50
34099;DHT22;20374;49.474;10.944;2023-06-14T07:16:45;19.50;79.90
34099;DHT22;20374;49.474;10.944;2023-06-14T07:19:12;19.70;80.10
34099;DHT22;20374;49.474;10.944;2023-06-14T07:21:37;19.80;78.20
34099;DHT22;20374;49.474;10.944;2023-06-14T07:24:05;19.90;77.60
34099;DHT22;20374;49.474;10.944;2023-06-14T07:26:32;19.80;79.70
34099;DHT22;20374;49.474;10.944;2023-06-14T07:28:57;19.70;78.40
34099;DHT22;20374;49.474;10.944;2023-06-14T07:31:23;19.80;77.70
34099;DHT22;20374;49.474;10.944;2023-06-14T07:33:49;19.90;78.10
34099;DHT22;20374;49.474;10.944;2023-06-14T07:36:15;20.30;75.40
34099;DHT22;20374;49.474;10.944;2023-06-14T07:38:41;20.60;76.50
34099;DHT22;20374;49.474;10.944;2023-06-14T07:41:07;20.80;74.80
34099;DHT22;20374;49.474;10.944;2023-06-14T07:43:33;20.90;73.40
34099;DHT22;20374;49.474;10.944;2023-06-14T07:45:59;20.90;74.80
34099;DHT22;20374;49.474;10.944;2023-06-14T07:48:25;20.80;75.30
34099;DHT22;20374;49.474;10.944;2023-06-14T07:50:51;20.70;73.30
34099;DHT22;20374;49.474;10.944;2023-06-14T07:53:17;20.70;73.70
34099;DHT22;20374;49.474;10.944;2023-06-14T07:55:43;20.80;73.20
34099;DHT22;20374;49.474;10.944;2023-06-14T07:58:09;21.10;72.30
34099;DHT22;20374;49.474;10.944;2023-06-14T08:00:36;21.60;71.50
34099;DHT22;20374;49.474;10.944;2023-06-14T08:03:02;22.00;68.40
34099;DHT22;20374;49.474;10.944;2023-06-14T08:05:28;22.20;67.60
34099;DHT22;20374;49.474;10.944;2023-06-14T08:07:55;22.10;65.70
34099;DHT22;20374;49.474;10.944;2023-06-14T08:10:21;22.30;64.30
34099;DHT22;20374;49.474;10.944;2023-06-14T08:12:48;22.30;65.70
34099;DHT22;20374;49.474;10.944;2023-06-14T08:15:17;22.80;65.00
34099;DHT22;20374;49.474;10.944;2023-06-14T08:17:44;23.00;62.00
34099;DHT22;20374;49.474;10.944;2023-06-14T08:20:10;22.80;62.20
34099;DHT22;20374;49.474;10.944;2023-06-14T08:22:37;22.50;63.30
34099;DHT22;20374;49.474;10.944;2023-06-14T08:25:04;22.40;63.00
34099;DHT22;20374;49.474;10.944;2023-06-14T08:27:30;22.10;63.40
34099;DHT22;20374;49.474;10.944;2023-06-14T08:29:56;22.00;64.70
34099;DHT22;20374;49.474;10.944;2023-06-14T08:32:33;21.90;64.00
34099;DHT22;20374;49.474;10.944;2023-06-14T08:35:05;21.60;64.80
34099;DHT22;20374;49.474;10.944;2023-06-14T08:37:32;21.40;65.10
34099;DHT22;20374;49.474;10.944;2023-06-14T08:39:59;21.20;66.50
34099;DHT22;20374;49.474;10.944;2023-06-14T08:42:25;21.30;68.10
34099;DHT22;20374;49.474;10.944;2023-06-14T08:44:51;21.30;65.70
34099;DHT22;20374;49.474;10.944;2023-06-14T08:47:17;21.40;64.50
34099;DHT22;20374;49.474;10.944;2023-06-14T08:49:46;21.40;66.00
34099;DHT22;20374;49.474;10.944;2023-06-14T08:52:13;21.40;64.80
34099;DHT22;20374;49.474;10.944;2023-06-14T08:54:44;21.50;64.00
34099;DHT22;20374;49.474;10.944;2023-06-14T08:57:14;21.70;64.00
34099;DHT22;20374;49.474;10.944;2023-06-14T08:59:47;21.90;63.80
34099;DHT22;20374;49.474;10.944;2023-06-14T09:02:15;22.00;64.80
34099;DHT22;20374;49.474;10.944;2023-06-14T09:04:43;22.00;64.80
34099;DHT22;20374;49.474;10.944;2023-06-14T09:07:11;22.10;64.20
34099;DHT22;20374;49.474;10.944;2023-06-14T09:09:41;22.10;62.20
34099;DHT22;20374;49.474;10.944;2023-06-14T09:12:13;22.10;62.60
34099;DHT22;20374;49.474;10.944;2023-06-14T09:14:39;22.60;62.20
34099;DHT22;20374;49.474;10.944;2023-06-14T09:17:07;23.10;62.00
34099;DHT22;20374;49.474;10.944;2023-06-14T09:19:34;23.60;61.50
34099;DHT22;20374;49.474;10.944;2023-06-14T09:22:02;23.60;60.20
34099;DHT22;20374;49.474;10.944;2023-06-14T09:24:28;23.70;60.90
34099;DHT22;20374;49.474;10.944;2023-06-14T09:26:54;24.00;60.60
34099;DHT22;20374;49.474;10.944;2023-06-14T09:29:20;24.70;58.60
34099;DHT22;20374;49.474;10.944;2023-06-14T09:31:47;25.20;58.20
34099;DHT22;20374;49.474;10.944;2023-06-14T09:34:13;25.30;57.30
34099;DHT22;20374;49.474;10.944;2023-06-14T09:36:42;24.80;56.60
34099;DHT22;20374;49.474;10.944;2023-06-14T09:39:08;24.00;58.40
34099;DHT22;20374;49.474;10.944;2023-06-14T09:41:41;24.80;57.90
34099;DHT22;20374;49.474;10.944;2023-06-14T09:44:09;25.70;56.00
34099;DHT22;20374;49.474;10.944;2023-06-14T09:46:36;26.80;56.70
34099;DHT22;20374;49.474;10.944;2023-06-14T09:49:03;27.90;54.10
34099;DHT22;20374;49.474;10.944;2023-06-14T09:51:30;29.10;53.50
34099;DHT22;20374;49.474;10.944;2023-06-14T09:54:00;30.30;50.60
34099;DHT22;20374;49.474;10.944;2023-06-14T09:56:28;30.10;49.50
34099;DHT22;20374;49.474;10.944;2023-06-14T09:58:59;28.90;49.90
34099;DHT22;20374;49.474;10.944;2023-06-14T10:01:26;27.20;50.90
34099;DHT22;20374;49.474;10.944;2023-06-14T10:04:06;25.90;52.70
34099;DHT22;20374;49.474;10.944;2023-06-14T10:06:36;24.90;54.80
34099;DHT22;20374;49.474;10.944;2023-06-14T10:09:04;24.20;56.60
34099;DHT22;20374;49.474;10.944;2023-06-14T10:11:32;24.60;56.60
34099;DHT22;20374;49.474;10.944;2023-06-14T10:14:03;25.40;53.60
34099;DHT22;20374;49.474;10.944;2023-06-14T10:16:31;25.40;54.60
34099;DHT22;20374;49.474;10.944;2023-06-14T10:24:33;25.60;53.40
34099;DHT22;20374;49.474;10.944;2023-06-14T10:27:00;25.90;53.20
34099;DHT22;20374;49.474;10.944;2023-06-14T10:29:27;25.60;53.60
34099;DHT22;20374;49.474;10.944;2023-06-14T10:31:59;25.30;53.80
34099;DHT22;20374;49.474;10.944;2023-06-14T10:34:29;24.80;54.50
34099;DHT22;20374;49.474;10.944;2023-06-14T10:37:06;24.40;54.60
34099;DHT22;20374;49.474;10.944;2023-06-14T10:39:42;24.10;53.90
34099;DHT22;20374;49.474;10.944;2023-06-14T10:42:09;24.10;55.30
34099;DHT22;20374;49.474;10.944;2023-06-14T10:44:52;25.20;54.80
34099;DHT22;20374;49.474;10.944;2023-06-14T10:47:21;26.10;54.20
34099;DHT22;20374;49.474;10.944;2023-06-14T10:49:51;26.90;53.10
34099;DHT22;20374;49.474;10.944;2023-06-14T10:52:22;27.90;50.90
34099;DHT22;20374;49.474;10.944;2023-06-14T10:55:16;29.00;51.30
34099;DHT22;20374;49.474;10.944;2023-06-14T10:57:54;29.90;48.90
34099;DHT22;20374;49.474;10.944;2023-06-14T11:00:26;29.80;47.20
34099;DHT22;20374;49.474;10.944;2023-06-14T11:05:25;29.10;46.80
34099;DHT22;20374;49.474;10.944;2023-06-14T11:10:43;27.50;47.10
34099;DHT22;20374;49.474;10.944;2023-06-14T11:13:09;26.80;49.40
34099;DHT22;20374;49.474;10.944;2023-06-14T11:15:37;26.50;49.70
34099;DHT22;20374;49.474;10.944;2023-06-14T11:18:07;26.50;49.20
34099;DHT22;20374;49.474;10.944;2023-06-14T11:20:36;26.50;50.00
34099;DHT22;20374;49.474;10.944;2023-06-14T11:23:03;26.40;49.70
34099;DHT22;20374;49.474;10.944;2023-06-14T11:25:29;26.30;51.00
34099;DHT22;20374;49.474;10.944;2023-06-14T11:27:56;26.80;49.70
34099;DHT22;20374;49.474;10.944;2023-06-14T11:30:23;26.60;51.10
34099;DHT22;20374;49.474;10.944;2023-06-14T11:32:50;26.50;51.50
34099;DHT22;20374;49.474;10.944;2023-06-14T11:35:18;26.10;50.60
34099;DHT22;20374;49.474;10.944;2023-06-14T11:37:44;25.90;50.60
34099;DHT22;20374;49.474;10.944;2023-06-14T11:40:11;25.70;51.00
34099;DHT22;20374;49.474;10.944;2023-06-14T11:42:39;25.40;51.30
34099;DHT22;20374;49.474;10.944;2023-06-14T11:45:10;25.10;51.80
34099;DHT22;20374;49.474;10.944;2023-06-14T11:47:38;24.90;52.70
34099;DHT22;20374;49.474;10.944;2023-06-14T11:50:05;25.60;53.00
34099;DHT22;20374;49.474;10.944;2023-06-14T11:52:32;26.20;50.80
34099;DHT22;20374;49.474;10.944;2023-06-14T11:54:58;25.90;50.80
34099;DHT22;20374;49.474;10.944;2023-06-14T11:57:24;25.60;51.10
34099;DHT22;20374;49.474;10.944;2023-06-14T11:59:50;25.30;50.90
34099;DHT22;20374;49.474;10.944;2023-06-14T12:02:18;24.80;51.50
34099;DHT22;20374;49.474;10.944;2023-06-14T12:04:47;24.50;51.40
34099;DHT22;20374;49.474;10.944;2023-06-14T12:07:17;24.30;52.00
34099;DHT22;20374;49.474;10.944;2023-06-14T12:12:24;24.10;53.60
34099;DHT22;20374;49.474;10.944;2023-06-14T12:14:55;24.10;53.30
34099;DHT22;20374;49.474;10.944;2023-06-14T12:17:22;24.00;52.50
34099;DHT22;20374;49.474;10.944;2023-06-14T12:19:49;24.70;53.20
34099;DHT22;20374;49.474;10.944;2023-06-14T12:22:16;25.60;52.10
34099;DHT22;20374;49.474;10.944;2023-06-14T12:24:43;26.20;49.80
34099;DHT22;20374;49.474;10.944;2023-06-14T12:27:09;26.40;50.40
34099;DHT22;20374;49.474;10.944;2023-06-14T12:29:37;26.40;52.20
34099;DHT22;20374;49.474;10.944;2023-06-14T12:32:03;26.20;50.50
34099;DHT22;20374;49.474;10.944;2023-06-14T12:34:29;26.10;50.60
34099;DHT22;20374;49.474;10.944;2023-06-14T12:36:56;25.80;49.30
34099;DHT22;20374;49.474;10.944;2023-06-14T12:39:23;25.60;50.50
34099;DHT22;20374;49.474;10.944;2023-06-14T12:41:50;25.40;50.50
34099;DHT22;20374;49.474;10.944;2023-06-14T12:44:16;25.40;50.00
34099;DHT22;20374;49.474;10.944;2023-06-14T12:46:42;25.80;52.30
34099;DHT22;20374;49.474;10.944;2023-06-14T12:49:10;26.80;52.60
34099;DHT22;20374;49.474;10.944;2023-06-14T12:51:37;28.10;50.00
34099;DHT22;20374;49.474;10.944;2023-06-14T12:54:03;29.20;46.80
34099;DHT22;20374;49.474;10.944;2023-06-14T12:56:29;29.80;45.40
34099;DHT22;20374;49.474;10.944;2023-06-14T12:58:55;30.10;45.40
34099;DHT22;20374;49.474;10.944;2023-06-14T13:01:21;30.10;43.90
34099;DHT22;20374;49.474;10.944;2023-06-14T13:03:47;29.50;44.20
34099;DHT22;20374;49.474;10.944;2023-06-14T13:06:14;28.60;44.50
34099;DHT22;20374;49.474;10.944;2023-06-14T13:08:40;27.60;45.20
34099;DHT22;20374;49.474;10.944;2023-06-14T13:11:05;27.00;47.00
34099;DHT22;20374;49.474;10.944;2023-06-14T13:13:31;26.50;47.20
34099;DHT22;20374;49.474;10.944;2023-06-14T13:15:57;26.00;47.20
34099;DHT22;20374;49.474;10.944;2023-06-14T13:18:23;25.60;48.30
34099;DHT22;20374;49.474;10.944;2023-06-14T13:20:49;25.20;48.70
34099;DHT22;20374;49.474;10.944;2023-06-14T13:23:16;24.90;49.80
34099;DHT22;20374;49.474;10.944;2023-06-14T13:25:42;24.70;50.40
34099;DHT22;20374;49.474;10.944;2023-06-14T13:28:08;24.70;49.40
34099;DHT22;20374;49.474;10.944;2023-06-14T13:30:33;24.50;49.80
34099;DHT22;20374;49.474;10.944;2023-06-14T13:33:00;24.30;50.80
34099;DHT22;20374;49.474;10.944;2023-06-14T13:35:26;24.50;50.30
34099;DHT22;20374;49.474;10.944;2023-06-14T13:37:52;24.60;50.30
34099;DHT22;20374;49.474;10.944;2023-06-14T13:40:18;24.70;50.70
34099;DHT22;20374;49.474;10.944;2023-06-14T13:42:46;24.70;50.60
34099;DHT22;20374;49.474;10.944;2023-06-14T13:45:12;24.70;49.80
34099;DHT22;20374;49.474;10.944;2023-06-14T13:47:38;24.50;49.40
34099;DHT22;20374;49.474;10.944;2023-06-14T13:50:05;24.60;49.90
34099;DHT22;20374;49.474;10.944;2023-06-14T13:52:31;24.90;49.60
34099;DHT22;20374;49.474;10.944;2023-06-14T13:54:57;25.10;49.40
34099;DHT22;20374;49.474;10.944;2023-06-14T13:57:23;25.30;49.70
34099;DHT22;20374;49.474;10.944;2023-06-14T13:59:49;25.20;49.70
34099;DHT22;20374;49.474;10.944;2023-06-14T14:02:15;25.50;49.30
34099;DHT22;20374;49.474;10.944;2023-06-14T14:04:41;26.00;48.20
34099;DHT22;20374;49.474;10.944;2023-06-14T14:07:07;26.00;49.00
34099;DHT22;20374;49.474;10.944;2023-06-14T14:09:34;26.10;48.40
34099;DHT22;20374;49.474;10.944;2023-06-14T14:12:01;26.40;48.50
34099;DHT22;20374;49.474;10.944;2023-06-14T14:14:28;26.90;48.40
34099;DHT22;20374;49.474;10.944;2023-06-14T14:16:54;27.00;48.30
34099;DHT22;20374;49.474;10.944;2023-06-14T14:19:21;27.10;48.40
34099;DHT22;20374;49.474;10.944;2023-06-14T14:21:47;26.80;48.10
34099;DHT22;20374;49.474;10.944;2023-06-14T14:24:13;26.80;48.30
34099;DHT22;20374;49.474;10.944;2023-06-14T14:26:39;26.40;49.50
34099;DHT22;20374;49.474;10.944;2023-06-14T14:29:05;26.30;48.80
34099;DHT22;20374;49.474;10.944;2023-06-14T14:31:32;26.00;48.60
34099;DHT22;20374;49.474;10.944;2023-06-14T14:33:57;25.80;49.80
34099;DHT22;20374;49.474;10.944;2023-06-14T14:36:23;25.80;48.80
34099;DHT22;20374;49.474;10.944;2023-06-14T14:38:49;25.50;48.90
34099;DHT22;20374;49.474;10.944;2023-06-14T14:41:17;25.30;47.90
34099;DHT22;20374;49.474;10.944;2023-06-14T14:43:44;25.20;48.20
34099;DHT22;20374;49.474;10.944;2023-06-14T14:46:10;25.30;49.10
34099;DHT22;20374;49.474;10.944;2023-06-14T14:48:36;25.50;48.30
34099;DHT22;20374;49.474;10.944;2023-06-14T14:51:02;25.80;50.00
34099;DHT22;20374;49.474;10.944;2023-06-14T14:53:27;26.20;47.90
34099;DHT22;20374;49.474;10.944;2023-06-14T14:55:53;26.40;47.90
34099;DHT22;20374;49.474;10.944;2023-06-14T14:58:19;26.60;47.60
34099;DHT22;20374;49.474;10.944;2023-06-14T15:00:46;26.80;47.90
34099;DHT22;20374;49.474;10.944;2023-06-14T15:03:13;26.80;46.90
34099;DHT22;20374;49.474;10.944;2023-06-14T15:05:39;26.70;47.60
34099;DHT22;20374;49.474;10.944;2023-06-14T15:08:05;26.50;47.80
34099;DHT22;20374;49.474;10.944;2023-06-14T15:10:37;26.20;48.40
34099;DHT22;20374;49.474;10.944;2023-06-14T15:13:06;25.90;48.20
34099;DHT22;20374;49.474;10.944;2023-06-14T15:15:33;25.60;48.50
34099;DHT22;20374;49.474;10.944;2023-06-14T15:17:59;25.40;47.60
34099;DHT22;20374;49.474;10.944;2023-06-14T15:20:26;25.20;49.80
34099;DHT22;20374;49.474;10.944;2023-06-14T15:22:53;25.20;48.20
34099;DHT22;20374;49.474;10.944;2023-06-14T15:25:28;25.20;48.50
34099;DHT22;20374;49.474;10.944;2023-06-14T15:27:54;25.30;47.30
34099;DHT22;20374;49.474;10.944;2023-06-14T15:30:21;25.40;47.70
34099;DHT22;20374;49.474;10.944;2023-06-14T15:32:48;25.40;48.00